createdAt,value
2023-05-07T00:01:08.208Z,90.49
2023-05-07T00:03:40.218Z,90.36
2023-05-07T00:06:13.636Z,89.91
2023-05-07T00:08:45.556Z,90.06
2023-05-07T00:11:17.431Z,90.05
2023-05-07T00:13:49.234Z,90.14
2023-05-07T00:16:21.003Z,90.07
2023-05-07T00:18:52.786Z,90.01
2023-05-07T00:21:27.530Z,90.20
2023-05-07T00:23:59.322Z,90.15
2023-05-07T00:26:31.092Z,90.06
2023-05-07T00:29:02.827Z,90.29
2023-05-07T00:31:34.768Z,90.27
2023-05-07T00:34:06.807Z,89.94
2023-05-07T00:36:38.584Z,89.53
2023-05-07T00:39:10.345Z,89.54
2023-05-07T00:41:42.497Z,89.48
2023-05-07T00:44:14.189Z,89.61
2023-05-07T00:46:46.374Z,90.17
2023-05-07T00:49:18.495Z,90.33
2023-05-07T00:51:51.912Z,90.82
2023-05-07T00:54:24.288Z,90.64
2023-05-07T00:56:56.455Z,90.53
2023-05-07T00:59:28.681Z,90.29
2023-05-07T01:02:00.533Z,90.19
2023-05-07T01:04:33.061Z,90.10
2023-05-07T01:07:05.523Z,90.42
2023-05-07T01:09:39.040Z,90.75
2023-05-07T01:12:12.414Z,91.52
2023-05-07T01:14:44.404Z,91.78
2023-05-07T01:17:16.964Z,92.25
2023-05-07T01:19:50.058Z,92.28
2023-05-07T01:22:32.876Z,91.90
2023-05-07T01:25:05.360Z,91.64
2023-05-07T01:27:38.504Z,91.82
2023-05-07T01:30:10.370Z,92.31
2023-05-07T01:32:48.427Z,92.03
2023-05-07T01:35:24.159Z,91.67
2023-05-07T01:37:56.719Z,91.65
2023-05-07T01:40:29.479Z,91.63
2023-05-07T01:42:59.734Z,92.14
2023-05-07T01:45:32.471Z,92.23
2023-05-07T01:48:03.575Z,92.62
2023-05-07T01:50:35.969Z,92.43
2023-05-07T01:53:08.318Z,92.54
2023-05-07T01:55:40.983Z,92.90
2023-05-07T01:58:13.263Z,93.33
2023-05-07T02:00:45.312Z,93.69
2023-05-07T02:03:17.022Z,93.52
2023-05-07T02:05:57.487Z,93.17
2023-05-07T02:08:44.230Z,93.15
2023-05-07T02:11:17.050Z,93.08
2023-05-07T02:13:49.165Z,92.95
2023-05-07T02:16:21.047Z,92.95
2023-05-07T02:18:52.996Z,92.83
2023-05-07T02:21:24.938Z,92.97
2023-05-07T02:23:57.223Z,92.91
2023-05-07T02:26:29.702Z,92.87
2023-05-07T02:29:01.778Z,92.58
2023-05-07T02:31:35.097Z,92.75
2023-05-07T02:34:07.563Z,92.83
2023-05-07T02:36:39.241Z,93.68
2023-05-07T02:39:16.460Z,93.81
2023-05-07T02:41:48.145Z,93.91
2023-05-07T02:44:20.024Z,94.16
2023-05-07T02:46:53.512Z,94.21
2023-05-07T02:49:25.372Z,94.17
2023-05-07T02:51:57.370Z,94.20
2023-05-07T02:54:29.435Z,94.23
2023-05-07T02:57:01.855Z,94.77
2023-05-07T02:59:33.584Z,95.19
2023-05-07T03:02:05.372Z,96.06
2023-05-07T03:04:37.478Z,95.55
2023-05-07T03:07:09.536Z,94.96
2023-05-07T03:09:41.200Z,94.46
2023-05-07T03:12:13.072Z,94.21
2023-05-07T03:14:44.806Z,94.91
2023-05-07T03:17:17.214Z,95.42
2023-05-07T03:19:48.953Z,94.69
2023-05-07T03:22:21.454Z,93.81
2023-05-07T03:24:53.180Z,93.35
2023-05-07T03:27:24.873Z,93.47
2023-05-07T03:29:57.521Z,92.77
2023-05-07T03:32:29.180Z,92.31
2023-05-07T03:35:01.203Z,92.29
2023-05-07T03:37:33.329Z,91.98
2023-05-07T03:40:05.393Z,91.29
2023-05-07T03:42:39.151Z,91.15
2023-05-07T03:45:12.373Z,91.14
2023-05-07T03:47:46.348Z,91.05
2023-05-07T03:50:21.788Z,90.55
2023-05-07T03:52:53.548Z,90.45
2023-05-07T03:55:26.176Z,90.00
2023-05-07T03:58:01.061Z,90.19
2023-05-07T04:00:38.096Z,90.22
2023-05-07T04:03:12.428Z,89.94
2023-05-07T04:05:44.236Z,89.77
2023-05-07T04:08:16.371Z,89.80
2023-05-07T04:10:56.099Z,89.51
2023-05-07T04:13:28.202Z,88.94
2023-05-07T04:16:00.761Z,88.62
2023-05-07T04:18:33.272Z,88.50
2023-05-07T04:21:05.720Z,88.37
2023-05-07T04:23:39.322Z,88.41
2023-05-07T04:26:13.828Z,88.44
2023-05-07T04:28:47.870Z,88.45
2023-05-07T04:31:20.938Z,88.52
2023-05-07T04:33:55.470Z,89.12
2023-05-07T04:36:28.736Z,88.84
2023-05-07T04:39:06.225Z,88.97
2023-05-07T04:41:39.156Z,89.23
2023-05-07T04:44:11.836Z,89.51
2023-05-07T04:46:43.674Z,89.54
2023-05-07T04:49:16.578Z,89.44
2023-05-07T04:51:48.560Z,89.11
2023-05-07T04:54:21.794Z,89.31
2023-05-07T04:56:53.823Z,89.53
2023-05-07T04:59:25.956Z,89.56
2023-05-07T05:01:58.595Z,89.19
2023-05-07T05:04:29.208Z,89.04
2023-05-07T05:07:01.593Z,88.50
2023-05-07T05:09:33.918Z,87.88
2023-05-07T05:12:05.152Z,86.83
2023-05-07T05:14:37.203Z,86.34
2023-05-07T05:17:09.386Z,86.04
2023-05-07T05:19:41.967Z,85.73
2023-05-07T05:22:13.702Z,85.31
2023-05-07T05:24:45.927Z,85.11
2023-05-07T05:27:17.725Z,85.07
2023-05-07T05:29:50.033Z,84.86
2023-05-07T05:32:21.969Z,84.66
2023-05-07T05:34:54.520Z,84.44
2023-05-07T05:37:26.922Z,84.44
2023-05-07T05:39:57.442Z,84.31
2023-05-07T05:42:31.299Z,83.24
2023-05-07T05:45:03.254Z,83.21
2023-05-07T05:47:35.567Z,82.69
2023-05-07T05:50:10.332Z,82.85
2023-05-07T05:52:43.033Z,82.08
2023-05-07T05:55:15.236Z,82.58
2023-05-07T05:57:47.477Z,82.92
2023-05-07T06:00:23.317Z,82.71
2023-05-07T06:03:01.037Z,82.51
2023-05-07T06:05:32.812Z,82.28
2023-05-07T06:08:04.786Z,81.82
2023-05-07T06:10:39.468Z,80.81
2023-05-07T06:13:11.872Z,80.52
2023-05-07T06:15:43.707Z,79.88
2023-05-07T06:18:16.031Z,79.28
2023-05-07T06:20:48.362Z,78.72
2023-05-07T06:23:26.734Z,78.29
2023-05-07T06:25:58.540Z,77.24
2023-05-07T06:28:36.731Z,76.86
2023-05-07T06:31:22.482Z,77.16
2023-05-07T06:34:00.950Z,77.46
2023-05-07T06:36:41.401Z,77.10
2023-05-07T06:39:23.401Z,76.98
2023-05-07T06:41:57.405Z,77.15
2023-05-07T06:44:32.683Z,77.32
2023-05-07T06:47:11.898Z,77.30
2023-05-07T06:49:45.579Z,76.73
2023-05-07T06:52:19.094Z,76.09
2023-05-07T06:54:51.535Z,75.21
2023-05-07T06:57:24.848Z,74.22
2023-05-07T06:59:57.334Z,74.27
2023-05-07T07:02:29.847Z,74.31
2023-05-07T07:05:01.955Z,73.41
2023-05-07T07:07:34.016Z,73.08
2023-05-07T07:10:06.189Z,72.48
2023-05-07T07:12:38.199Z,73.12
2023-05-07T07:15:12.046Z,73.24
2023-05-07T07:17:44.866Z,73.45
2023-05-07T07:20:17.480Z,73.33
2023-05-07T07:22:49.963Z,72.10
2023-05-07T07:25:22.369Z,72.93
2023-05-07T07:27:54.930Z,72.54
2023-05-07T07:30:28.759Z,70.90
2023-05-07T07:33:03.410Z,70.17
2023-05-07T07:35:37.185Z,69.80
2023-05-07T07:38:10.602Z,69.46
2023-05-07T07:40:44.835Z,69.10
2023-05-07T07:43:16.658Z,69.43
2023-05-07T07:45:48.506Z,69.25
2023-05-07T07:48:20.596Z,68.72
2023-05-07T07:50:53.610Z,68.54
2023-05-07T07:53:26.704Z,68.24
2023-05-07T07:55:59.480Z,67.87
2023-05-07T07:58:32.993Z,67.61
2023-05-07T08:01:06.059Z,67.63
2023-05-07T08:03:39.147Z,67.81
2023-05-07T08:06:11.876Z,67.11
2023-05-07T08:08:44.003Z,67.23
2023-05-07T08:11:16.536Z,67.11
2023-05-07T08:13:49.752Z,67.57
2023-05-07T08:16:22.341Z,66.78
2023-05-07T08:18:57.503Z,67.35
2023-05-07T08:21:29.484Z,67.04
2023-05-07T08:24:01.330Z,66.19
2023-05-07T08:26:34.412Z,66.02
2023-05-07T08:29:06.595Z,66.81
2023-05-07T08:31:39.680Z,66.60
2023-05-07T08:34:11.539Z,66.21
2023-05-07T08:36:47.922Z,67.12
2023-05-07T08:39:20.167Z,67.66
2023-05-07T08:41:57.750Z,66.88
2023-05-07T08:44:35.281Z,66.01
2023-05-07T08:47:09.672Z,66.53
2023-05-07T08:49:42.445Z,67.02
2023-05-07T08:52:15.186Z,66.10
2023-05-07T08:54:47.357Z,66.07
2023-05-07T08:57:20.934Z,66.63
2023-05-07T08:59:52.869Z,67.33
2023-05-07T09:02:25.059Z,66.85
2023-05-07T09:04:56.612Z,66.39
2023-05-07T09:07:28.865Z,66.27
2023-05-07T09:10:02.922Z,66.07
2023-05-07T09:12:36.189Z,64.97
2023-05-07T09:15:11.758Z,64.51
2023-05-07T09:17:45.697Z,64.13
2023-05-07T09:20:20.480Z,63.70
2023-05-07T09:22:52.964Z,63.01
2023-05-07T09:25:33.062Z,63.79
2023-05-07T09:28:11.074Z,63.49
2023-05-07T09:30:42.961Z,63.48
2023-05-07T09:33:15.923Z,63.00
2023-05-07T09:35:53.075Z,63.33
2023-05-07T09:38:25.645Z,63.36
2023-05-07T09:41:09.023Z,63.27
2023-05-07T09:43:46.630Z,63.10
2023-05-07T09:46:21.419Z,62.73
2023-05-07T09:48:58.983Z,62.61
2023-05-07T09:51:39.610Z,62.80
2023-05-07T09:54:12.722Z,62.63
2023-05-07T09:56:46.994Z,61.62
2023-05-07T09:59:20.677Z,62.16
2023-05-07T10:01:58.713Z,62.76
2023-05-07T10:04:32.667Z,62.56
2023-05-07T10:07:05.905Z,63.09
2023-05-07T10:09:39.823Z,62.29
2023-05-07T10:12:13.357Z,61.96
2023-05-07T10:14:45.789Z,61.74
2023-05-07T10:17:20.152Z,62.75
2023-05-07T10:19:55.219Z,62.35
2023-05-07T10:22:30.106Z,62.53
2023-05-07T10:25:04.821Z,61.62
2023-05-07T10:27:38.930Z,62.16
2023-05-07T10:30:21.946Z,61.98
2023-05-07T10:32:53.394Z,62.14
2023-05-07T10:35:34.401Z,61.52
2023-05-07T10:38:08.747Z,61.52
2023-05-07T10:40:42.640Z,62.27
2023-05-07T10:43:14.946Z,62.60
2023-05-07T10:46:13.504Z,62.21
2023-05-07T10:49:13.133Z,60.81
2023-05-07T10:52:21.232Z,61.27
2023-05-07T10:55:26.710Z,60.90
2023-05-07T10:58:32.988Z,61.29
2023-05-07T11:01:54.730Z,61.08
2023-05-07T11:05:26.212Z,60.36
2023-05-07T11:08:12.161Z,60.55
2023-05-07T11:10:54.422Z,59.95
2023-05-07T11:13:48.167Z,60.39
2023-05-07T11:16:29.429Z,61.20
2023-05-07T11:19:15.017Z,61.21
2023-05-07T11:21:50.446Z,60.63
2023-05-07T11:24:44.373Z,60.42
2023-05-07T11:27:24.858Z,59.45
2023-05-07T11:29:57.174Z,59.37
2023-05-07T11:32:31.199Z,58.89
2023-05-07T11:35:04.613Z,57.75
2023-05-07T11:37:36.392Z,57.01
2023-05-07T11:40:12.451Z,56.71
2023-05-07T11:42:44.571Z,55.54
2023-05-07T11:45:27.036Z,55.71
2023-05-07T11:47:58.714Z,56.11
2023-05-07T11:50:30.474Z,56.08
2023-05-07T11:53:02.599Z,56.66
2023-05-07T11:55:34.744Z,56.40
2023-05-07T11:58:07.843Z,56.81
2023-05-07T12:00:40.828Z,57.00
2023-05-07T12:03:13.106Z,57.22
2023-05-07T12:05:45.089Z,56.28
2023-05-07T12:08:19.310Z,55.61
2023-05-07T12:10:52.637Z,54.77
2023-05-07T12:13:25.891Z,54.87
2023-05-07T12:15:59.228Z,54.86
2023-05-07T12:18:32.171Z,56.22
2023-05-07T12:21:04.421Z,55.82
2023-05-07T12:23:37.765Z,54.62
2023-05-07T12:26:10.924Z,53.60
2023-05-07T12:28:42.812Z,53.42
2023-05-07T12:31:16.659Z,54.16
2023-05-07T12:33:48.949Z,54.29
2023-05-07T12:36:22.157Z,54.35
2023-05-07T12:38:54.090Z,55.36
2023-05-07T12:41:30.192Z,55.63
2023-05-07T12:44:02.081Z,55.25
2023-05-07T12:46:33.976Z,55.06
2023-05-07T12:49:06.480Z,54.88
2023-05-07T12:51:39.779Z,55.47
2023-05-07T12:54:11.626Z,54.24
2023-05-07T12:56:43.671Z,53.47
2023-05-07T12:59:15.839Z,51.93
2023-05-07T13:01:49.089Z,51.38
2023-05-07T13:04:22.236Z,51.57
2023-05-07T13:06:54.188Z,51.68
2023-05-07T13:09:26.041Z,51.81
2023-05-07T13:11:57.803Z,53.18
2023-05-07T13:14:29.655Z,53.36
2023-05-07T13:17:01.611Z,53.21
2023-05-07T13:19:33.322Z,53.00
2023-05-07T13:22:05.341Z,52.97
2023-05-07T13:24:37.808Z,52.91
2023-05-07T13:27:09.753Z,53.10
2023-05-07T13:29:41.547Z,53.36
2023-05-07T13:32:13.847Z,54.39
2023-05-07T13:34:45.706Z,54.65
2023-05-07T13:37:17.465Z,54.19
2023-05-07T13:39:49.507Z,53.62
2023-05-07T13:42:21.356Z,53.42
2023-05-07T13:44:53.125Z,53.10
2023-05-07T13:47:25.022Z,52.38
2023-05-07T13:49:56.935Z,50.67
2023-05-07T13:52:28.799Z,49.80
2023-05-07T13:55:00.687Z,50.60
2023-05-07T13:57:32.483Z,49.42
2023-05-07T14:00:05.941Z,48.38
2023-05-07T14:02:46.980Z,48.13
2023-05-07T14:05:18.870Z,47.96
2023-05-07T14:07:52.674Z,49.03
2023-05-07T14:10:25.124Z,49.23
2023-05-07T14:12:56.932Z,49.34
2023-05-07T14:15:28.785Z,48.31
2023-05-07T14:18:01.167Z,48.50
2023-05-07T14:20:34.228Z,48.86
2023-05-07T14:23:06.096Z,49.70
2023-05-07T14:25:38.384Z,49.91
2023-05-07T14:28:10.305Z,49.09
2023-05-07T14:30:42.180Z,48.46
2023-05-07T14:33:14.595Z,48.46
2023-05-07T14:35:49.711Z,49.04
2023-05-07T14:38:24.656Z,50.39
2023-05-07T14:40:57.098Z,50.46
2023-05-07T14:43:28.922Z,50.36
2023-05-07T14:46:00.825Z,50.35
2023-05-07T14:48:32.934Z,50.71
2023-05-07T14:51:05.366Z,50.41
2023-05-07T14:53:37.176Z,49.64
2023-05-07T14:56:09.425Z,48.74
2023-05-07T14:58:41.206Z,48.56
2023-05-07T15:01:13.150Z,49.05
2023-05-07T15:03:45.240Z,48.94
2023-05-07T15:06:17.110Z,48.26
2023-05-07T15:08:49.375Z,49.21
2023-05-07T15:11:21.075Z,48.34
2023-05-07T15:13:52.842Z,46.15
2023-05-07T15:16:24.629Z,45.16
2023-05-07T15:18:56.455Z,43.95
2023-05-07T15:21:28.663Z,43.38
2023-05-07T15:24:00.533Z,43.68
2023-05-07T15:26:32.281Z,42.65
2023-05-07T15:29:09.157Z,41.99
2023-05-07T15:31:41.228Z,41.81
2023-05-07T15:34:13.463Z,42.15
2023-05-07T15:36:45.339Z,43.45
2023-05-07T15:39:17.224Z,44.01
2023-05-07T15:41:48.927Z,44.68
2023-05-07T15:44:20.654Z,46.18
2023-05-07T15:46:52.514Z,47.30
2023-05-07T15:49:24.364Z,47.01
2023-05-07T15:51:56.685Z,46.45
2023-05-07T15:54:28.491Z,45.12
2023-05-07T15:57:01.592Z,43.95
2023-05-07T15:59:33.389Z,44.16
2023-05-07T16:02:05.424Z,43.72
2023-05-07T16:04:37.275Z,42.28
2023-05-07T16:07:11.800Z,41.60
2023-05-07T16:09:44.684Z,41.57
2023-05-07T16:12:18.245Z,40.44
2023-05-07T16:14:51.845Z,40.52
2023-05-07T16:17:24.189Z,42.13
2023-05-07T16:19:56.062Z,43.14
2023-05-07T16:22:29.352Z,44.12
2023-05-07T16:25:02.495Z,44.72
2023-05-07T16:27:34.963Z,44.74
2023-05-07T16:30:08.696Z,45.17
2023-05-07T16:32:40.682Z,46.00
2023-05-07T16:35:13.505Z,46.02
2023-05-07T16:37:45.548Z,46.90
2023-05-07T16:40:18.294Z,45.52
2023-05-07T16:42:50.583Z,44.85
2023-05-07T16:45:23.475Z,44.25
2023-05-07T16:47:56.744Z,44.42
2023-05-07T16:50:28.654Z,44.86
2023-05-07T16:53:00.430Z,46.17
2023-05-07T16:55:38.776Z,46.98
2023-05-07T16:58:12.801Z,48.27
2023-05-07T17:03:19.834Z,49.83
2023-05-07T17:05:53.118Z,49.96
2023-05-07T17:08:25.142Z,50.57
2023-05-07T17:10:56.914Z,50.49
2023-05-07T17:13:28.933Z,50.50
2023-05-07T17:16:00.740Z,51.02
2023-05-07T17:18:32.960Z,50.34
2023-05-07T17:21:06.125Z,50.40
2023-05-07T17:23:37.982Z,50.81
2023-05-07T17:26:15.498Z,51.63
2023-05-07T17:28:47.154Z,51.38
2023-05-07T17:31:18.955Z,51.29
2023-05-07T17:33:50.906Z,59.14
2023-05-07T17:36:22.730Z,76.63
2023-05-07T17:38:54.504Z,83.54
2023-05-07T17:41:26.296Z,80.42
2023-05-07T17:43:58.028Z,77.16
2023-05-07T17:46:30.005Z,79.30
2023-05-07T17:49:01.847Z,67.75
2023-05-07T17:51:45.841Z,73.37
2023-05-07T17:54:26.872Z,69.33
2023-05-07T17:56:59.108Z,67.70
2023-05-07T17:59:30.950Z,70.17
2023-05-07T18:02:02.802Z,65.66
2023-05-07T18:04:34.557Z,52.26
2023-05-07T18:07:06.563Z,52.76
2023-05-07T18:09:38.587Z,53.26
2023-05-07T18:12:10.825Z,54.21
2023-05-07T18:14:43.082Z,55.12
2023-05-07T18:17:14.978Z,56.11
2023-05-07T18:19:47.488Z,57.13
2023-05-07T18:22:19.475Z,58.28
2023-05-07T18:24:52.942Z,58.68
2023-05-07T18:27:25.272Z,59.82
2023-05-07T18:29:57.290Z,59.92
2023-05-07T18:32:29.722Z,60.41
2023-05-07T18:35:01.659Z,60.60
2023-05-07T18:37:33.308Z,61.44
2023-05-07T18:40:06.121Z,60.87
2023-05-07T18:42:37.206Z,61.76
2023-05-07T18:45:11.033Z,62.58
2023-05-07T18:47:43.258Z,62.71
2023-05-07T18:50:16.561Z,63.48
2023-05-07T18:52:49.103Z,63.47
2023-05-07T18:55:22.593Z,64.03
2023-05-07T18:57:54.724Z,64.72
2023-05-07T19:00:26.961Z,65.00
2023-05-07T19:02:59.029Z,65.23
2023-05-07T19:05:30.953Z,64.90
2023-05-07T19:08:03.128Z,65.64
2023-05-07T19:10:35.315Z,65.56
2023-05-07T19:13:07.899Z,65.88
2023-05-07T19:15:39.941Z,66.28
2023-05-07T19:18:12.179Z,66.11
2023-05-07T19:20:44.171Z,65.74
2023-05-07T19:23:16.471Z,65.78
2023-05-07T19:25:50.669Z,65.82
2023-05-07T19:28:23.249Z,65.82
2023-05-07T19:30:55.303Z,65.82
2023-05-07T19:33:29.755Z,66.01
2023-05-07T19:36:02.724Z,65.95
2023-05-07T19:38:34.644Z,66.27
2023-05-07T19:41:06.520Z,65.37
2023-05-07T19:43:39.530Z,65.59
2023-05-07T19:46:11.665Z,65.86
2023-05-07T19:48:44.073Z,65.73
2023-05-07T19:51:16.356Z,65.88
2023-05-07T19:53:48.210Z,66.45
2023-05-07T19:56:20.991Z,66.47
2023-05-07T19:58:51.831Z,66.41
2023-05-07T20:01:23.647Z,67.24
2023-05-07T20:03:56.330Z,67.27
2023-05-07T20:06:26.824Z,67.71
2023-05-07T20:08:58.905Z,67.87
2023-05-07T20:11:31.868Z,68.14
2023-05-07T20:14:05.820Z,67.93
2023-05-07T20:16:37.874Z,67.99
2023-05-07T20:19:10.152Z,68.42
2023-05-07T20:21:42.203Z,68.60
2023-05-07T20:24:14.392Z,68.83
2023-05-07T20:26:46.707Z,69.06
2023-05-07T20:29:18.716Z,68.92
2023-05-07T20:31:50.461Z,68.75
2023-05-07T20:34:22.242Z,68.93
2023-05-07T20:36:54.059Z,69.25
2023-05-07T20:39:26.886Z,69.51
2023-05-07T20:41:59.619Z,69.71
2023-05-07T20:44:30.698Z,70.05
2023-05-07T20:47:02.574Z,70.55
2023-05-07T20:49:34.423Z,70.47
2023-05-07T20:52:07.115Z,70.29
2023-05-07T20:54:40.777Z,70.43
2023-05-07T20:57:12.652Z,70.53
2023-05-07T20:59:44.887Z,70.64
2023-05-07T21:02:17.005Z,70.54
2023-05-07T21:04:51.450Z,71.02
2023-05-07T21:07:23.450Z,71.49
2023-05-07T21:09:55.342Z,71.64
2023-05-07T21:12:27.172Z,71.30
2023-05-07T21:15:00.028Z,71.41
2023-05-07T21:17:33.460Z,71.68
2023-05-07T21:20:05.634Z,71.66
2023-05-07T21:22:37.497Z,72.00
2023-05-07T21:25:12.599Z,71.84
2023-05-07T21:27:45.798Z,72.71
2023-05-07T21:30:18.813Z,73.06
2023-05-07T21:32:53.114Z,73.26
2023-05-07T21:35:25.556Z,73.80
2023-05-07T21:37:57.347Z,73.82
2023-05-07T21:40:29.228Z,74.40
2023-05-07T21:43:00.973Z,74.36
2023-05-07T21:45:32.862Z,75.15
2023-05-07T21:48:04.726Z,75.22
2023-05-07T21:50:36.857Z,75.57
2023-05-07T21:53:08.817Z,76.25
2023-05-07T21:55:40.609Z,76.01
2023-05-07T21:58:12.364Z,76.64
2023-05-07T22:00:44.424Z,76.68
2023-05-07T22:03:16.236Z,77.10
2023-05-07T22:05:49.736Z,77.27
2023-05-07T22:08:21.648Z,77.40
2023-05-07T22:10:53.461Z,77.89
2023-05-07T22:13:25.943Z,78.02
2023-05-07T22:15:58.754Z,77.92
2023-05-07T22:18:30.713Z,77.29
2023-05-07T22:21:02.446Z,77.46
2023-05-07T22:23:34.390Z,77.16
2023-05-07T22:26:12.931Z,77.33
2023-05-07T22:28:44.705Z,76.99
2023-05-07T22:31:16.551Z,77.16
2023-05-07T22:33:48.290Z,77.12
2023-05-07T22:36:20.402Z,77.44
2023-05-07T22:38:52.149Z,77.93
2023-05-07T22:41:24.591Z,77.57
2023-05-07T22:43:56.472Z,78.09
2023-05-07T22:46:28.383Z,78.37
2023-05-07T22:49:00.252Z,78.84
2023-05-07T22:51:32.371Z,78.96
2023-05-07T22:54:04.321Z,79.44
2023-05-07T22:56:36.026Z,79.50
2023-05-07T22:59:07.724Z,79.40
2023-05-07T23:01:39.865Z,80.07
2023-05-07T23:04:11.767Z,80.31
2023-05-07T23:06:43.536Z,80.30
2023-05-07T23:09:15.464Z,80.83
2023-05-07T23:11:47.202Z,81.03
2023-05-07T23:14:18.945Z,81.22
2023-05-07T23:16:50.691Z,80.39
2023-05-07T23:19:22.542Z,80.20
2023-05-07T23:21:54.496Z,80.33
2023-05-07T23:24:26.268Z,80.14
2023-05-07T23:26:58.039Z,80.28
2023-05-07T23:29:29.764Z,80.25
2023-05-07T23:32:01.779Z,80.38
2023-05-07T23:34:33.531Z,80.29
2023-05-07T23:37:05.382Z,80.90
2023-05-07T23:39:37.270Z,81.72
2023-05-07T23:42:10.232Z,81.44
2023-05-07T23:44:42.099Z,81.58
2023-05-07T23:47:13.810Z,81.67
2023-05-07T23:49:45.594Z,81.38
2023-05-07T23:52:17.403Z,81.46
2023-05-07T23:54:49.198Z,80.73
2023-05-07T23:57:20.969Z,80.80
2023-05-07T23:59:53.102Z,81.38
